createdAt,value
2018-06-20T00:00:21.214Z,21.30
2018-06-20T00:02:50.148Z,21.30
2018-06-20T00:05:19.349Z,21.20
2018-06-20T00:07:48.269Z,21.10
2018-06-20T00:13:37.933Z,21.00
2018-06-20T00:16:06.916Z,20.90
2018-06-20T00:18:35.847Z,20.90
2018-06-20T00:21:04.778Z,20.80
2018-06-20T00:23:33.705Z,20.70
2018-06-20T00:26:02.660Z,20.70
2018-06-20T00:28:31.585Z,20.60
2018-06-20T00:31:00.518Z,20.70
2018-06-20T00:33:29.485Z,20.60
2018-06-20T00:35:58.416Z,20.60
2018-06-20T00:38:27.339Z,20.60
2018-06-20T00:40:56.238Z,20.50
2018-06-20T00:43:25.153Z,20.50
2018-06-20T00:45:54.117Z,20.50
2018-06-20T00:48:23.021Z,20.40
2018-06-20T00:50:51.926Z,20.40
2018-06-20T00:53:20.862Z,20.50
2018-06-20T00:56:00.341Z,20.50
2018-06-20T00:58:29.268Z,20.40
2018-06-20T01:00:58.208Z,20.40
2018-06-20T01:03:27.113Z,20.30
2018-06-20T01:05:56.041Z,20.30
2018-06-20T01:08:25.062Z,20.20
2018-06-20T01:10:54.009Z,20.20
2018-06-20T01:13:22.917Z,20.20
2018-06-20T01:15:51.865Z,20.10
2018-06-20T01:18:20.802Z,20.10
2018-06-20T01:20:49.742Z,20.10
2018-06-20T01:25:49.812Z,20.10
2018-06-20T01:28:20.775Z,20.00
2018-06-20T01:30:51.077Z,20.00
2018-06-20T01:33:20.618Z,20.00
2018-06-20T01:35:49.629Z,20.00
2018-06-20T01:38:18.573Z,20.00
2018-06-20T01:40:47.492Z,20.10
2018-06-20T01:43:16.425Z,20.00
2018-06-20T02:02:28.223Z,19.70
2018-06-20T02:04:57.131Z,19.60
2018-06-20T02:07:26.048Z,19.70
2018-06-20T02:09:54.997Z,19.70
2018-06-20T02:12:23.910Z,19.80
2018-06-20T02:14:52.857Z,19.70
2018-06-20T02:17:21.803Z,19.70
2018-06-20T02:19:50.740Z,19.70
2018-06-20T02:22:19.682Z,19.70
2018-06-20T02:24:48.602Z,19.70
2018-06-20T02:27:17.570Z,19.60
2018-06-20T02:29:46.529Z,19.50
2018-06-20T02:32:15.558Z,19.50
2018-06-20T02:34:44.574Z,19.40
2018-06-20T02:37:13.649Z,19.40
2018-06-20T02:39:42.585Z,19.40
2018-06-20T02:42:11.501Z,19.30
2018-06-20T02:44:40.417Z,19.30
2018-06-20T02:47:09.330Z,19.20
2018-06-20T02:49:38.238Z,19.10
2018-06-20T02:55:41.917Z,19.10
2018-06-20T02:58:10.850Z,18.90
2018-06-20T03:00:39.737Z,19.00
2018-06-20T03:03:08.633Z,19.10
2018-06-20T03:05:37.598Z,19.10
2018-06-20T03:08:06.510Z,19.00
2018-06-20T03:10:35.513Z,19.00
2018-06-20T03:13:04.441Z,19.00
2018-06-20T03:15:33.391Z,18.90
2018-06-20T03:18:02.336Z,18.90
2018-06-20T03:20:31.246Z,18.90
2018-06-20T03:23:00.177Z,18.80
2018-06-20T03:25:29.102Z,18.80
2018-06-20T03:27:58.013Z,18.70
2018-06-20T03:30:26.982Z,18.70
2018-06-20T03:32:55.903Z,18.60
2018-06-20T03:35:24.843Z,18.60
2018-06-20T03:37:53.751Z,18.70
2018-06-20T03:40:22.653Z,18.70
2018-06-20T03:42:51.615Z,18.60
2018-06-20T03:45:20.533Z,18.70
2018-06-20T03:47:49.456Z,18.60
2018-06-20T03:50:18.378Z,18.60
2018-06-20T03:52:47.316Z,18.60
2018-06-20T03:55:16.256Z,18.70
2018-06-20T03:57:45.169Z,18.80
2018-06-20T04:00:14.069Z,18.80
2018-06-20T04:02:43.630Z,18.70
2018-06-20T04:05:12.906Z,18.60
2018-06-20T04:07:42.093Z,18.60
2018-06-20T04:10:11.018Z,18.50
2018-06-20T04:12:40.006Z,18.50
2018-06-20T04:15:08.953Z,18.40
2018-06-20T04:17:37.885Z,18.40
2018-06-20T04:20:06.830Z,18.40
2018-06-20T04:22:35.730Z,18.40
2018-06-20T04:25:04.711Z,18.40
2018-06-20T04:27:33.637Z,18.30
2018-06-20T04:30:02.577Z,18.40
2018-06-20T04:32:31.500Z,18.40
2018-06-20T04:35:00.504Z,18.40
2018-06-20T04:37:29.477Z,18.40
2018-06-20T04:39:58.516Z,18.40
2018-06-20T04:42:27.495Z,18.40
2018-06-20T04:44:56.405Z,18.30
2018-06-20T04:47:25.639Z,18.40
2018-06-20T04:52:23.269Z,18.50
2018-06-20T04:54:52.416Z,18.50
2018-06-20T04:57:21.304Z,18.50
2018-06-20T05:02:19.305Z,18.70
2018-06-20T05:04:48.235Z,18.70
2018-06-20T05:07:17.520Z,18.80
2018-06-20T05:09:46.424Z,18.80
2018-06-20T05:12:15.325Z,18.90
2018-06-20T05:14:44.230Z,19.00
2018-06-20T05:17:13.133Z,19.00
2018-06-20T05:19:42.049Z,19.10
2018-06-20T05:22:11.008Z,19.20
2018-06-20T05:24:39.905Z,19.30
2018-06-20T05:27:08.836Z,19.40
2018-06-20T05:29:37.733Z,19.50
2018-06-20T05:32:06.661Z,19.60
2018-06-20T05:34:35.572Z,19.70
2018-06-20T05:37:04.480Z,19.90
2018-06-20T05:39:33.390Z,20.10
2018-06-20T05:42:02.320Z,20.20
2018-06-20T05:44:31.228Z,20.30
2018-06-20T05:47:00.118Z,20.50
2018-06-20T05:49:29.029Z,20.60
2018-06-20T05:51:57.929Z,20.90
2018-06-20T05:54:26.942Z,21.20
2018-06-20T05:56:55.853Z,21.70
2018-06-20T05:59:24.809Z,22.40
2018-06-20T06:01:53.724Z,23.10
2018-06-20T06:04:22.617Z,23.80
2018-06-20T06:06:51.506Z,24.40
2018-06-20T06:09:20.410Z,24.90
2018-06-20T06:11:49.312Z,25.50
2018-06-20T06:14:18.230Z,26.00
2018-06-20T06:16:47.192Z,26.50
2018-06-20T06:19:16.129Z,26.90
2018-06-20T06:21:45.054Z,27.20
2018-06-20T06:24:13.980Z,27.60
2018-06-20T06:26:42.910Z,28.00
2018-06-20T06:29:11.903Z,28.40
2018-06-20T06:31:40.785Z,28.60
2018-06-20T06:34:09.676Z,28.90
2018-06-20T06:36:38.645Z,29.00
2018-06-20T06:39:10.228Z,29.20
2018-06-20T06:41:39.215Z,29.40
2018-06-20T06:44:08.132Z,29.70
2018-06-20T06:46:37.068Z,29.90
2018-06-20T06:49:05.992Z,30.20
2018-06-20T06:51:35.013Z,30.30
2018-06-20T06:54:03.928Z,30.60
2018-06-20T06:56:32.823Z,30.70
2018-06-20T06:59:01.733Z,30.90
2018-06-20T07:01:30.667Z,30.90
2018-06-20T07:03:59.569Z,30.90
2018-06-20T07:06:28.685Z,30.90
2018-06-20T07:08:57.826Z,31.10
2018-06-20T07:11:28.947Z,31.20
2018-06-20T07:13:57.893Z,31.20
2018-06-20T07:16:26.841Z,31.20
2018-06-20T07:18:55.737Z,31.40
2018-06-20T07:21:24.649Z,31.30
2018-06-20T07:23:53.544Z,31.30
2018-06-20T07:26:22.433Z,31.30
2018-06-20T07:28:51.329Z,31.50
2018-06-20T07:31:20.239Z,31.40
2018-06-20T07:33:49.141Z,31.30
2018-06-20T07:36:18.188Z,31.60
2018-06-20T07:38:47.025Z,31.80
2018-06-20T07:41:16.105Z,31.80
2018-06-20T07:43:45.077Z,31.80
2018-06-20T07:46:13.996Z,31.90
2018-06-20T07:48:42.892Z,31.90
2018-06-20T07:51:11.793Z,32.00
2018-06-20T07:53:40.691Z,31.90
2018-06-20T07:56:09.593Z,31.90
2018-06-20T07:58:43.838Z,31.90
2018-06-20T08:01:27.661Z,31.80
2018-06-20T08:04:01.896Z,31.70
2018-06-20T08:06:36.017Z,31.70
2018-06-20T08:09:11.882Z,31.80
2018-06-20T08:11:46.109Z,31.70
2018-06-20T08:14:20.317Z,31.70
2018-06-20T08:16:54.584Z,31.80
2018-06-20T08:19:28.757Z,31.90
2018-06-20T08:21:57.850Z,31.80
2018-06-20T08:24:27.145Z,32.00
2018-06-20T08:26:56.045Z,31.90
2018-06-20T08:29:24.965Z,31.90
2018-06-20T08:31:53.881Z,31.90
2018-06-20T08:34:22.780Z,32.00
2018-06-20T08:36:52.304Z,32.20
2018-06-20T08:39:21.206Z,32.40
2018-06-20T08:41:50.136Z,32.30
2018-06-20T08:44:19.038Z,32.40
2018-06-20T08:46:47.942Z,32.40
2018-06-20T08:51:45.341Z,32.40
2018-06-20T08:54:14.297Z,32.30
2018-06-20T08:59:11.697Z,32.30
2018-06-20T09:01:40.617Z,32.30
2018-06-20T09:04:14.836Z,32.30
2018-06-20T09:06:49.111Z,32.40
2018-06-20T09:09:24.278Z,32.40
2018-06-20T09:11:58.401Z,32.30
2018-06-20T09:14:27.539Z,32.20
2018-06-20T09:17:01.769Z,32.20
2018-06-20T09:19:36.717Z,32.10
2018-06-20T09:22:05.684Z,32.00
2018-06-20T09:24:34.655Z,32.00
2018-06-20T09:27:03.625Z,32.10
2018-06-20T09:29:32.573Z,32.20
2018-06-20T09:32:01.490Z,32.30
2018-06-20T09:34:30.378Z,32.40
2018-06-20T09:36:59.277Z,32.60
2018-06-20T09:39:28.180Z,32.70
2018-06-20T09:41:57.076Z,32.70
2018-06-20T09:44:26.666Z,32.60
2018-06-20T09:46:56.454Z,32.80
2018-06-20T09:49:25.390Z,33.00
2018-06-20T09:51:54.326Z,33.00
2018-06-20T09:54:23.346Z,33.10
2018-06-20T09:56:52.277Z,33.30
2018-06-20T10:01:31.996Z,33.40
2018-06-20T10:04:06.277Z,33.50
2018-06-20T10:06:40.508Z,33.50
2018-06-20T10:09:14.781Z,33.50
2018-06-20T10:11:49.042Z,33.70
2018-06-20T10:14:17.957Z,33.70
2018-06-20T10:16:46.926Z,33.80
2018-06-20T10:19:15.825Z,33.90
2018-06-20T10:21:44.713Z,34.00
2018-06-20T10:24:13.660Z,34.10
2018-06-20T10:26:42.578Z,34.10
2018-06-20T10:29:11.497Z,34.20
2018-06-20T10:31:40.401Z,34.30
2018-06-20T10:34:09.305Z,34.30
2018-06-20T10:36:38.325Z,34.40
2018-06-20T10:39:09.217Z,34.50
2018-06-20T10:41:39.149Z,34.30
2018-06-20T10:44:15.797Z,34.30
2018-06-20T10:46:49.978Z,34.40
2018-06-20T10:51:48.339Z,34.30
2018-06-20T10:54:17.311Z,34.40
2018-06-20T10:56:51.418Z,34.50
2018-06-20T10:59:26.428Z,34.40
2018-06-20T11:02:01.342Z,34.40
2018-06-20T11:06:42.103Z,34.60
2018-06-20T11:09:16.422Z,34.50
2018-06-20T11:11:50.627Z,34.60
2018-06-20T11:14:19.560Z,34.60
2018-06-20T11:16:48.514Z,34.70
2018-06-20T11:19:17.485Z,34.70
2018-06-20T11:21:46.386Z,34.90
2018-06-20T11:24:15.312Z,34.90
2018-06-20T11:29:12.756Z,34.90
2018-06-20T11:31:42.188Z,34.90
2018-06-20T11:34:11.469Z,35.00
2018-06-20T11:36:40.381Z,35.10
2018-06-20T11:39:11.237Z,35.10
2018-06-20T11:41:40.669Z,35.10
2018-06-20T11:44:09.609Z,35.10
2018-06-20T11:46:43.865Z,35.20
2018-06-20T11:49:12.788Z,35.20
2018-06-20T11:51:43.502Z,35.00
2018-06-20T11:54:12.602Z,34.90
2018-06-20T11:56:41.564Z,34.90
2018-06-20T11:59:15.714Z,34.90
2018-06-20T12:01:49.972Z,34.90
2018-06-20T12:04:24.114Z,35.00
2018-06-20T12:06:58.278Z,35.00
2018-06-20T12:09:32.506Z,35.00
2018-06-20T12:14:40.777Z,35.10
2018-06-20T12:17:08.893Z,35.10
2018-06-20T12:19:43.099Z,35.10
2018-06-20T12:22:17.502Z,35.00
2018-06-20T12:24:51.816Z,35.10
2018-06-20T12:27:26.083Z,35.00
2018-06-20T12:30:00.421Z,35.00
2018-06-20T12:32:34.497Z,34.80
2018-06-20T12:35:08.678Z,34.70
2018-06-20T12:37:42.977Z,34.60
2018-06-20T12:40:14.670Z,34.80
2018-06-20T12:42:48.834Z,34.90
2018-06-20T12:45:19.121Z,34.90
2018-06-20T12:47:49.821Z,34.90
2018-06-20T12:50:23.520Z,35.00
2018-06-20T12:52:52.494Z,35.10
2018-06-20T12:55:21.740Z,35.10
2018-06-20T12:57:51.533Z,35.10
2018-06-20T13:00:20.498Z,35.20
2018-06-20T13:02:49.957Z,35.30
2018-06-20T13:05:18.881Z,35.20
2018-06-20T13:07:47.785Z,35.10
2018-06-20T13:10:16.674Z,35.10
2018-06-20T13:12:45.637Z,35.10
2018-06-20T13:15:14.595Z,35.00
2018-06-20T13:17:43.512Z,35.00
2018-06-20T13:20:12.497Z,35.00
2018-06-20T13:22:41.434Z,34.90
2018-06-20T13:25:10.364Z,34.90
2018-06-20T13:27:44.774Z,34.90
2018-06-20T13:30:13.693Z,34.90
2018-06-20T13:32:47.953Z,34.70
2018-06-20T13:35:22.244Z,34.70
2018-06-20T13:37:56.594Z,34.60
2018-06-20T13:40:30.733Z,34.60
2018-06-20T13:43:05.009Z,34.60
2018-06-20T13:45:39.150Z,34.60
2018-06-20T13:48:13.437Z,34.60
2018-06-20T13:50:42.401Z,34.60
2018-06-20T13:53:11.798Z,34.50
2018-06-20T13:55:40.790Z,34.50
2018-06-20T13:58:14.572Z,34.50
2018-06-20T14:00:43.595Z,34.50
2018-06-20T14:03:13.002Z,34.40
2018-06-20T14:05:42.169Z,34.30
2018-06-20T14:08:11.106Z,34.30
2018-06-20T14:10:40.042Z,34.30
2018-06-20T14:13:09.011Z,34.20
2018-06-20T14:15:38.102Z,34.10
2018-06-20T14:18:07.021Z,34.10
2018-06-20T14:20:41.151Z,34.10
2018-06-20T14:23:10.181Z,34.10
2018-06-20T14:28:07.618Z,34.00
2018-06-20T14:30:42.041Z,33.90
2018-06-20T14:33:16.282Z,33.80
2018-06-20T14:35:50.610Z,33.60
2018-06-20T14:38:25.361Z,33.50
2018-06-20T14:41:01.872Z,33.50
2018-06-20T14:43:36.469Z,33.40
2018-06-20T14:46:10.805Z,33.30
2018-06-20T14:48:39.825Z,33.30
2018-06-20T14:51:09.366Z,33.20
2018-06-20T14:53:38.289Z,33.10
2018-06-20T14:56:07.213Z,33.10
2018-06-20T14:58:36.880Z,33.00
2018-06-20T15:01:05.919Z,33.00
2018-06-20T15:03:35.448Z,32.90
2018-06-20T15:06:06.470Z,32.90
2018-06-20T15:08:35.834Z,32.90
2018-06-20T15:13:33.446Z,32.70
2018-06-20T15:18:14.446Z,32.70
2018-06-20T15:20:43.393Z,32.60
2018-06-20T15:23:12.316Z,32.40
2018-06-20T15:25:45.602Z,32.30
2018-06-20T15:28:19.902Z,32.20
2018-06-20T15:30:54.078Z,32.20
2018-06-20T15:33:28.321Z,32.20
2018-06-20T15:36:02.474Z,32.20
2018-06-20T15:38:31.456Z,32.10
2018-06-20T15:41:00.394Z,32.10
2018-06-20T15:43:29.305Z,32.00
2018-06-20T15:46:02.870Z,32.00
2018-06-20T15:48:31.920Z,31.90
2018-06-20T15:51:00.889Z,31.80
2018-06-20T15:53:29.845Z,31.80
2018-06-20T15:58:27.309Z,31.70
2018-06-20T16:00:56.268Z,31.70
2018-06-20T16:03:25.182Z,31.60
2018-06-20T16:08:22.573Z,31.50
2018-06-20T16:10:51.488Z,31.50
2018-06-20T16:13:20.424Z,31.50
2018-06-20T16:15:49.349Z,31.40
2018-06-20T16:18:18.997Z,31.30
2018-06-20T16:20:53.510Z,31.30
2018-06-20T16:23:27.695Z,31.20
2018-06-20T16:26:02.074Z,31.20
2018-06-20T16:28:36.354Z,31.20
2018-06-20T16:31:05.269Z,31.10
2018-06-20T16:33:34.207Z,31.10
2018-06-20T16:36:03.117Z,31.10
2018-06-20T16:38:32.070Z,31.10
2018-06-20T16:41:01.054Z,31.00
2018-06-20T16:43:29.973Z,31.00
2018-06-20T16:45:58.918Z,31.00
2018-06-20T16:48:27.841Z,30.90
2018-06-20T16:50:56.752Z,30.90
2018-06-20T16:53:25.684Z,30.80
2018-06-20T16:55:54.617Z,30.70
2018-06-20T17:00:56.401Z,30.60
2018-06-20T17:03:25.387Z,30.50
2018-06-20T17:05:54.285Z,30.50
2018-06-20T17:10:51.711Z,30.30
2018-06-20T17:13:26.067Z,30.20
2018-06-20T17:16:00.302Z,30.10
2018-06-20T17:18:35.392Z,30.10
2018-06-20T17:23:13.452Z,30.00
2018-06-20T17:25:42.430Z,29.90
2018-06-20T17:28:11.380Z,29.70
2018-06-20T17:30:40.290Z,29.60
2018-06-20T17:33:09.199Z,29.60
2018-06-20T17:35:38.123Z,29.60
2018-06-20T17:38:07.074Z,29.60
2018-06-20T17:40:36.052Z,29.50
2018-06-20T17:43:05.097Z,29.40
2018-06-20T17:45:34.036Z,29.40
2018-06-20T17:48:02.981Z,29.30
2018-06-20T17:50:31.897Z,29.20
2018-06-20T17:53:00.813Z,29.10
2018-06-20T17:55:29.742Z,29.00
2018-06-20T17:57:58.685Z,28.90
2018-06-20T18:00:27.600Z,28.80
2018-06-20T18:02:56.525Z,28.80
2018-06-20T18:05:30.910Z,28.80
2018-06-20T18:08:05.205Z,28.70
2018-06-20T18:10:39.392Z,28.70
2018-06-20T18:13:08.270Z,28.60
2018-06-20T18:15:42.518Z,28.60
2018-06-20T18:18:11.510Z,28.50
2018-06-20T18:20:40.417Z,28.40
2018-06-20T18:23:09.324Z,28.30
2018-06-20T18:25:38.223Z,28.20
2018-06-20T18:28:07.130Z,28.20
2018-06-20T18:30:37.476Z,28.10
2018-06-20T18:33:06.452Z,28.00
2018-06-20T18:35:35.349Z,27.90
2018-06-20T18:38:04.276Z,27.80
2018-06-20T18:40:33.160Z,27.80
2018-06-20T18:45:30.565Z,27.60
2018-06-20T18:48:04.772Z,27.60
2018-06-20T18:50:33.656Z,27.50
2018-06-20T18:53:02.533Z,27.40
2018-06-20T18:55:31.405Z,27.30
2018-06-20T18:58:05.512Z,27.10
2018-06-20T19:00:39.749Z,27.00
2018-06-20T19:03:14.599Z,26.90
2018-06-20T19:05:48.818Z,26.80
2018-06-20T19:08:23.082Z,26.70
2018-06-20T19:10:52.144Z,26.70
2018-06-20T19:13:21.094Z,26.70
2018-06-20T19:15:49.989Z,26.60
2018-06-20T19:18:18.881Z,26.60
2018-06-20T19:20:47.881Z,26.50
2018-06-20T19:23:16.824Z,26.40
2018-06-20T19:25:45.721Z,26.30
2018-06-20T19:28:14.613Z,26.10
2018-06-20T19:33:12.977Z,25.80
2018-06-20T19:35:41.876Z,25.70
2018-06-20T19:38:10.797Z,25.60
2018-06-20T19:40:40.375Z,25.60
2018-06-20T19:43:09.282Z,25.50
2018-06-20T19:45:38.182Z,25.50
2018-06-20T19:48:07.102Z,25.50
2018-06-20T19:50:36.025Z,25.40
2018-06-20T19:53:04.908Z,25.40
2018-06-20T19:55:33.793Z,25.30
2018-06-20T19:58:02.716Z,25.20
2018-06-20T20:00:31.593Z,25.10
2018-06-20T20:03:01.531Z,25.00
2018-06-20T20:05:30.475Z,25.00
2018-06-20T20:07:59.405Z,25.00
2018-06-20T20:10:28.335Z,24.90
2018-06-20T20:12:57.299Z,24.80
2018-06-20T20:15:26.216Z,24.70
2018-06-20T20:17:55.150Z,24.60
2018-06-20T20:20:24.117Z,24.40
2018-06-20T20:22:53.047Z,24.30
2018-06-20T20:25:21.953Z,24.10
2018-06-20T20:27:50.865Z,24.00
2018-06-20T20:30:19.796Z,24.10
2018-06-20T20:32:48.774Z,24.00
2018-06-20T20:35:17.698Z,24.00
2018-06-20T20:37:46.645Z,24.00
2018-06-20T20:40:15.616Z,23.80
2018-06-20T20:42:44.526Z,23.80
2018-06-20T20:45:13.487Z,23.80
2018-06-20T20:47:42.407Z,23.70
2018-06-20T20:50:11.298Z,23.80
2018-06-20T20:52:40.191Z,23.70
2018-06-20T20:55:09.097Z,23.70
2018-06-20T20:57:38.020Z,23.60
2018-06-20T21:00:07.145Z,23.50
2018-06-20T21:02:36.049Z,23.50
2018-06-20T21:05:05.190Z,23.40
2018-06-20T21:07:34.171Z,23.30
2018-06-20T21:12:32.753Z,23.20
2018-06-20T21:15:01.718Z,23.10
2018-06-20T21:17:30.649Z,23.20
2018-06-20T21:19:59.564Z,23.20
2018-06-20T21:22:28.466Z,23.10
2018-06-20T21:27:25.922Z,23.00
2018-06-20T21:29:54.871Z,22.90
2018-06-20T21:32:24.496Z,22.90
2018-06-20T21:34:53.416Z,22.80
2018-06-20T21:37:22.404Z,22.70
2018-06-20T21:39:51.310Z,22.60
2018-06-20T21:42:20.219Z,22.50
2018-06-20T21:44:49.193Z,22.60
2018-06-20T21:47:18.122Z,22.70
2018-06-20T21:49:47.052Z,22.70
2018-06-20T21:52:15.981Z,22.60
2018-06-20T21:54:44.940Z,22.40
2018-06-20T21:57:14.060Z,22.40
2018-06-20T21:59:43.036Z,22.40
2018-06-20T22:02:11.949Z,22.30
2018-06-20T22:04:40.904Z,22.20
2018-06-20T22:07:09.853Z,22.20
2018-06-20T22:09:38.766Z,22.20
2018-06-20T22:12:07.995Z,22.30
2018-06-20T22:14:36.948Z,22.30
2018-06-20T22:17:05.850Z,22.20
2018-06-20T22:19:34.741Z,22.20
2018-06-20T22:22:03.759Z,22.10
2018-06-20T22:24:32.758Z,22.00
2018-06-20T22:27:01.790Z,21.90
2018-06-20T22:29:30.703Z,21.90
2018-06-20T22:31:59.667Z,21.80
2018-06-20T22:34:28.596Z,21.80
2018-06-20T22:36:57.562Z,21.80
2018-06-20T22:39:36.536Z,21.90
2018-06-20T22:42:05.818Z,21.70
2018-06-20T22:44:34.757Z,21.70
2018-06-20T22:47:03.709Z,21.70
2018-06-20T22:49:32.711Z,21.60
2018-06-20T22:52:01.628Z,21.60
2018-06-20T22:54:30.525Z,21.70
2018-06-20T22:56:59.429Z,21.70
2018-06-20T22:59:28.349Z,21.70
2018-06-20T23:01:57.289Z,21.60
2018-06-20T23:04:26.206Z,21.50
2018-06-20T23:06:55.117Z,21.50
2018-06-20T23:09:24.017Z,21.50
2018-06-20T23:11:52.942Z,21.50
2018-06-20T23:14:21.869Z,21.50
2018-06-20T23:16:50.792Z,21.50
2018-06-20T23:19:19.833Z,21.40
2018-06-20T23:21:48.758Z,21.40
2018-06-20T23:24:17.662Z,21.30
2018-06-20T23:26:46.625Z,21.30
2018-06-20T23:29:15.529Z,21.30
2018-06-20T23:31:44.513Z,21.30
2018-06-20T23:34:13.455Z,21.20
2018-06-20T23:36:42.501Z,21.30
2018-06-20T23:39:11.437Z,21.40
2018-06-20T23:41:40.365Z,21.30
2018-06-20T23:44:09.348Z,21.30
2018-06-20T23:46:38.265Z,21.20
2018-06-20T23:49:07.321Z,21.30
2018-06-20T23:51:36.264Z,21.20
2018-06-20T23:54:05.241Z,21.30
2018-06-20T23:56:34.142Z,21.30
2018-06-20T23:59:03.049Z,21.20
